Time;durP1;ratioP1;P1;durP2;ratioP2;P2;SDS_P1;SDS_P2;PMS_P1;PMS_P2;Temp;Humidity;BMP_temperature;BMP_pressure;BME280_temperature;BME280_humidity;BME280_pressure;Samples;Min_cycle;Max_cycle;Signal;HPM_P1;HPM_P2
2022/01/29 00:09:08;;;;;;;27.93;14.77;;;6.20;93.90;;;;;;20983939;28;20253;-63
2022/01/29 00:19:10;;;;;;;24.80;14.80;;;6.20;94.10;;;;;;20983252;28;20217;-62
2022/01/29 00:29:19;;;;;;;27.03;14.93;;;6.10;94.30;;;;;;20980050;28;20210;-63
2022/01/29 00:39:22;;;;;;;24.83;13.57;;;6.00;94.40;;;;;;20983764;28;20243;-62
2022/01/29 00:49:24;;;;;;;28.47;14.63;;;6.00;94.40;;;;;;20983261;28;20236;-62
2022/01/29 00:59:26;;;;;;;26.63;14.03;;;6.10;94.70;;;;;;20991073;28;20299;-62
2022/01/29 01:09:27;;;;;;;22.13;12.70;;;6.10;94.60;;;;;;20933704;28;20236;-63
2022/01/29 01:19:29;;;;;;;23.33;12.43;;;6.20;94.70;;;;;;20924534;28;20200;-62
2022/01/29 01:29:31;;;;;;;22.67;11.73;;;6.20;94.90;;;;;;20862918;28;20721;-62
2022/01/29 01:39:36;;;;;;;19.60;10.97;;;6.20;94.20;;;;;;20839425;28;20337;-63
2022/01/29 01:49:38;;;;;;;18.43;10.83;;;6.30;94.20;;;;;;20839159;28;20312;-63
2022/01/29 01:59:40;;;;;;;15.97;8.87;;;6.40;93.70;;;;;;20841042;28;20237;-65
2022/01/29 02:09:42;;;;;;;14.83;8.20;;;6.40;93.60;;;;;;20836716;28;20238;-63
2022/01/29 02:27:42;;;;;;;11.50;7.13;;;6.30;93.00;;;;;;21322986;27;21026;-63
2022/01/29 02:37:50;;;;;;;11.87;7.87;;;6.30;92.70;;;;;;21236870;28;20606;-62
2022/01/29 02:56:20;;;;;;;12.67;7.53;;;6.40;92.50;;;;;;21067833;28;20501;-62
2022/01/29 03:06:22;;;;;;;12.95;7.65;;;6.40;92.40;;;;;;21077763;28;20207;-64
2022/01/29 03:16:24;;;;;;;13.57;7.10;;;6.40;92.20;;;;;;21066880;28;20203;-63
2022/01/29 03:26:25;;;;;;;12.50;7.80;;;6.30;92.30;;;;;;21059125;28;20298;-62
2022/01/29 03:36:27;;;;;;;12.40;7.33;;;6.40;92.30;;;;;;21062857;28;20222;-63
2022/01/29 03:46:29;;;;;;;11.43;7.50;;;6.40;92.60;;;;;;21065593;28;20212;-64
2022/01/29 03:56:31;;;;;;;10.70;7.30;;;6.40;92.30;;;;;;21147504;28;20215;-63
2022/01/29 04:06:32;;;;;;;11.47;6.83;;;6.40;92.60;;;;;;21097336;28;20208;-63
2022/01/29 04:16:34;;;;;;;10.10;6.73;;;6.30;92.50;;;;;;21089662;28;20221;-63
2022/01/29 04:26:36;;;;;;;10.27;6.70;;;6.40;92.80;;;;;;21089890;28;20208;-63
2022/01/29 04:36:37;;;;;;;13.27;6.43;;;6.40;92.40;;;;;;21088949;28;20214;-63
2022/01/29 04:46:39;;;;;;;10.40;6.80;;;6.30;92.60;;;;;;21087026;28;20232;-64
2022/01/29 04:56:41;;;;;;;11.53;7.13;;;6.30;92.70;;;;;;21086462;28;20590;-65
2022/01/29 05:06:42;;;;;;;13.30;7.63;;;6.40;92.70;;;;;;21086113;28;20209;-66
2022/01/29 05:26:49;;;;;;;11.93;7.87;;;6.40;92.70;;;;;;21083959;28;20207;-67
2022/01/29 05:27:08;;;;;;;13.90;7.90;;;6.20;93.00;;;;;;21057221;28;20563;-64
2022/01/29 05:37:10;;;;;;;16.60;8.73;;;6.30;93.00;;;;;;20997402;28;20206;-65
2022/01/29 05:47:11;;;;;;;13.27;7.73;;;6.30;93.10;;;;;;20998459;28;20257;-63
2022/01/29 05:57:13;;;;;;;14.00;8.27;;;6.30;93.00;;;;;;20997550;28;20209;-65
2022/01/29 06:07:14;;;;;;;14.23;7.90;;;6.30;93.20;;;;;;20997453;28;20596;-66
2022/01/29 06:17:16;;;;;;;12.27;7.47;;;6.40;93.20;;;;;;20997167;28;20655;-63
2022/01/29 06:27:18;;;;;;;12.30;7.33;;;6.40;93.40;;;;;;20998396;28;20587;-63
2022/01/29 06:37:20;;;;;;;11.50;7.03;;;6.40;93.10;;;;;;20996822;28;20259;-64
2022/01/29 06:47:23;;;;;;;13.67;7.67;;;6.30;93.30;;;;;;20997904;28;20235;-64
2022/01/29 06:57:25;;;;;;;12.07;7.43;;;6.40;93.30;;;;;;21056740;28;20259;-63
2022/01/29 07:07:27;;;;;;;13.33;8.23;;;6.40;93.20;;;;;;21043794;28;20234;-64
2022/01/29 07:17:29;;;;;;;15.77;9.30;;;6.20;93.30;;;;;;21050722;28;20206;-64
2022/01/29 07:27:30;;;;;;;15.97;9.40;;;6.20;93.50;;;;;;20972116;28;20603;-65
2022/01/29 07:37:32;;;;;;;16.60;9.60;;;6.20;93.70;;;;;;20996130;28;20648;-66
2022/01/29 07:47:34;;;;;;;17.70;9.27;;;6.20;93.70;;;;;;21002542;28;20777;-68
2022/01/29 07:57:36;;;;;;;18.30;9.83;;;6.20;93.70;;;;;;20997232;28;20255;-63
2022/01/29 08:07:38;;;;;;;17.13;9.70;;;6.20;93.80;;;;;;21005938;28;20232;-68
2022/01/29 08:17:40;;;;;;;16.20;8.87;;;6.20;94.20;;;;;;21005090;28;20618;-64
2022/01/29 08:27:42;;;;;;;17.03;8.80;;;6.00;94.50;;;;;;21002203;28;20242;-63
2022/01/29 08:37:44;;;;;;;13.17;8.70;;;6.00;94.60;;;;;;20986438;28;20204;-63
2022/01/29 08:47:46;;;;;;;14.30;8.43;;;6.00;95.10;;;;;;21001474;28;20239;-62
2022/01/29 08:57:49;;;;;;;14.63;8.10;;;6.10;95.40;;;;;;21057779;28;20206;-64
2022/01/29 09:07:50;;;;;;;11.10;7.30;;;6.40;95.30;;;;;;21085747;28;20305;-64
2022/01/29 09:17:52;;;;;;;10.17;5.50;;;6.50;95.20;;;;;;21040343;28;20265;-64
2022/01/29 09:27:54;;;;;;;8.23;5.40;;;6.60;94.90;;;;;;20998510;28;20231;-64
2022/01/29 09:40:22;;;;;;;5.20;3.87;;;6.70;94.70;;;;;;20980690;28;20562;-62
2022/01/29 09:50:24;;;;;;;5.90;3.50;;;6.90;94.60;;;;;;20970319;28;20205;-62
2022/01/29 10:00:26;;;;;;;5.23;3.30;;;7.00;94.50;;;;;;20915819;28;20206;-63
2022/01/29 10:10:28;;;;;;;3.70;2.80;;;7.20;94.30;;;;;;20896631;28;20215;-64
2022/01/29 10:20:30;;;;;;;3.23;2.67;;;7.20;94.40;;;;;;20898991;28;20258;-65
2022/01/29 10:30:34;;;;;;;3.77;2.73;;;7.20;94.20;;;;;;20896548;28;20257;-62
2022/01/29 10:40:38;;;;;;;4.20;2.70;;;7.20;94.00;;;;;;20897469;28;20218;-64
2022/01/29 10:50:39;;;;;;;3.80;2.70;;;7.10;94.10;;;;;;20848932;28;20264;-63
2022/01/29 11:06:16;;;;;;;3.23;2.40;;;7.20;94.10;;;;;;20985772;28;21085;-64
2022/01/29 11:16:18;;;;;;;2.63;2.30;;;7.30;94.10;;;;;;20986231;28;20701;-63
2022/01/29 11:26:20;;;;;;;6.37;4.33;;;7.30;94.00;;;;;;20984469;28;20221;-63
2022/01/29 11:36:22;;;;;;;4.63;2.70;;;7.30;94.20;;;;;;20983919;28;20255;-70
2022/01/29 11:46:31;;;;;;;3.50;2.40;;;;;;;;;;20980982;28;20210;-62
2022/01/29 11:56:35;;;;;;;3.50;2.20;;;7.50;94.00;;;;;;20957410;28;20301;-63
2022/01/29 12:06:57;;;;;;;2.97;1.87;;;7.50;93.80;;;;;;20895115;28;20278;-63
2022/01/29 12:16:59;;;;;;;2.97;2.23;;;7.60;93.80;;;;;;20845546;28;20238;-62
2022/01/29 12:27:02;;;;;;;2.63;2.20;;;7.70;93.80;;;;;;20840616;28;20226;-62
2022/01/29 12:37:15;;;;;;;4.23;2.30;;;7.80;93.60;;;;;;20839988;28;20233;-74
2022/01/29 12:47:26;;;;;;;3.90;2.90;;;7.90;93.90;;;;;;20845345;28;20214;-68
2022/01/29 12:57:45;;;;;;;4.60;3.03;;;7.40;93.30;;;;;;20853743;28;20303;-65
2022/01/29 13:07:49;;;;;;;6.80;3.70;;;7.20;93.50;;;;;;20851952;28;20578;-66
2022/01/29 13:17:50;;;;;;;6.30;4.27;;;7.20;93.70;;;;;;20840401;28;20235;-63
2022/01/29 13:28:12;;;;;;;5.03;3.90;;;7.00;93.80;;;;;;20836091;28;20214;-63
2022/01/29 13:38:17;;;;;;;6.23;4.27;;;6.90;94.70;;;;;;20835751;28;20296;-65
2022/01/29 13:48:25;;;;;;;4.60;3.60;;;6.80;95.00;;;;;;20834656;28;20695;-74
2022/01/29 13:58:49;;;;;;;4.90;3.13;;;6.60;95.60;;;;;;20857652;28;20242;-63
2022/01/29 14:09:20;;;;;;;4.87;2.93;;;6.40;96.20;;;;;;20912936;28;20661;-71
2022/01/29 14:19:23;;;;;;;3.77;2.93;;;6.50;96.40;;;;;;20914700;28;20639;-76
2022/01/29 14:29:26;;;;;;;5.93;3.27;;;6.40;96.50;;;;;;20913730;28;20267;-74
2022/01/29 14:39:49;;;;;;;5.10;3.67;;;6.30;96.70;;;;;;20913674;28;20236;-67
2022/01/29 14:49:50;;;;;;;3.10;2.63;;;6.50;97.10;;;;;;20912945;28;20266;-63
2022/01/29 14:59:52;;;;;;;3.50;2.70;;;6.60;97.30;;;;;;20911944;28;20253;-62
2022/01/29 15:09:54;;;;;;;3.40;2.90;;;6.80;97.50;;;;;;20913024;28;20706;-66
2022/01/29 15:19:56;;;;;;;4.17;2.93;;;6.90;97.60;;;;;;20915455;28;20230;-63
2022/01/29 15:29:57;;;;;;;4.13;2.90;;;6.90;97.50;;;;;;20911731;28;20259;-61
2022/01/29 15:39:59;;;;;;;3.60;2.80;;;6.80;97.50;;;;;;20910422;28;20236;-63
2022/01/29 15:50:22;;;;;;;3.30;2.70;;;6.80;97.60;;;;;;20923110;28;20248;-68
2022/01/29 16:00:24;;;;;;;3.20;2.40;;;6.80;97.70;;;;;;20882228;28;20246;-63
2022/01/29 16:10:26;;;;;;;4.70;2.93;;;6.90;97.80;;;;;;20839366;28;20269;-63
2022/01/29 16:20:28;;;;;;;3.60;2.80;;;6.90;97.90;;;;;;20841614;28;20233;-70
2022/01/29 16:30:29;;;;;;;3.93;2.30;;;7.00;97.90;;;;;;20840712;28;20670;-63
2022/01/29 16:40:31;;;;;;;2.20;2.00;;;7.20;97.90;;;;;;20839595;28;20308;-63
2022/01/29 16:50:35;;;;;;;2.33;1.80;;;7.20;97.90;;;;;;20839229;28;20683;-63
2022/01/29 17:00:36;;;;;;;2.73;1.60;;;7.40;97.80;;;;;;20837664;28;20244;-69
2022/01/29 17:10:38;;;;;;;3.23;1.60;;;7.50;97.70;;;;;;20858620;28;20621;-73
2022/01/29 17:20:40;;;;;;;1.97;1.40;;;7.50;97.70;;;;;;20912118;28;20590;-77
2022/01/29 17:30:43;;;;;;;1.70;1.60;;;;;;;;;;20874003;28;20230;-68
2022/01/29 17:40:45;;;;;;;2.13;1.67;;;7.70;97.60;;;;;;20885754;28;20238;-74
2022/01/29 17:50:47;;;;;;;2.27;2.00;;;7.70;97.70;;;;;;20834252;28;20614;-64
2022/01/29 18:00:49;;;;;;;2.00;1.80;;;7.70;97.70;;;;;;20851220;28;20297;-72
2022/01/29 18:10:51;;;;;;;2.80;2.20;;;7.70;97.80;;;;;;20830395;28;20241;-65
2022/01/29 18:20:53;;;;;;;2.47;2.20;;;7.70;98.10;;;;;;20854336;28;20285;-63
2022/01/29 18:39:58;;;;;;;3.40;2.63;;;7.50;98.00;;;;;;21073022;28;20653;-70
2022/01/29 18:50:17;;;;;;;3.20;2.80;;;7.50;98.40;;;;;;21070707;28;20233;-68
2022/01/29 19:00:19;;;;;;;4.07;2.90;;;7.50;98.50;;;;;;20983316;28;20214;-63
2022/01/29 19:10:24;;;;;;;3.33;2.77;;;7.40;99.00;;;;;;20985500;28;20234;-64
2022/01/29 19:20:26;;;;;;;5.40;2.50;;;7.40;99.20;;;;;;20982152;28;20216;-61
2022/01/29 19:30:29;;;;;;;2.20;1.93;;;7.50;99.50;;;;;;20978793;28;20367;-66
2022/01/29 19:40:32;;;;;;;1.70;1.40;;;7.60;99.90;;;;;;20981735;28;20222;-62
2022/01/29 19:50:34;;;;;;;0.97;0.97;;;7.80;99.90;;;;;;20955191;28;20292;-61
2022/01/29 20:00:36;;;;;;;1.50;1.00;;;8.00;99.90;;;;;;20968475;28;20233;-62
2022/01/29 20:10:41;;;;;;;0.93;0.93;;;8.10;99.90;;;;;;20920007;28;20229;-63
2022/01/29 20:20:42;;;;;;;1.30;1.20;;;8.20;99.90;;;;;;20921930;28;20211;-61
2022/01/29 20:30:47;;;;;;;1.07;0.97;;;8.20;99.90;;;;;;20919892;28;20285;-62
2022/01/29 20:40:50;;;;;;;1.10;1.00;;;8.30;99.90;;;;;;20865626;28;20207;-62
2022/01/29 20:50:51;;;;;;;1.20;1.10;;;8.40;99.90;;;;;;20836612;28;20287;-63
2022/01/29 21:00:53;;;;;;;1.20;1.10;;;8.40;99.90;;;;;;20914133;28;20204;-64
2022/01/29 21:10:57;;;;;;;1.63;1.10;;;8.50;99.60;;;;;;20917403;28;20645;-72
2022/01/29 21:21:00;;;;;;;1.73;1.20;;;8.60;99.40;;;;;;20916881;28;20626;-69
2022/01/29 21:31:01;;;;;;;1.40;1.10;;;8.60;99.20;;;;;;20889718;28;20236;-65
2022/01/29 21:41:03;;;;;;;1.77;1.40;;;8.60;99.40;;;;;;20862529;28;20253;-72
2022/01/29 21:51:05;;;;;;;2.27;1.40;;;8.70;98.80;;;;;;20911105;28;20686;-68
2022/01/29 22:01:08;;;;;;;1.37;1.20;;;8.80;98.80;;;;;;20913930;28;20208;-71
2022/01/29 22:11:10;;;;;;;1.63;1.20;;;8.80;98.60;;;;;;20913090;28;20231;-72
2022/01/29 22:21:12;;;;;;;2.60;1.30;;;8.90;98.60;;;;;;20912803;28;20207;-64
2022/01/29 22:31:14;;;;;;;1.97;1.40;;;8.90;98.70;;;;;;20912290;28;20293;-71
2022/01/29 22:41:17;;;;;;;1.90;1.70;;;8.90;99.00;;;;;;20911327;28;20660;-71
2022/01/29 22:58:20;;;;;;;2.10;1.57;;;8.70;99.90;;;;;;21067976;28;20552;-64
2022/01/29 23:08:21;;;;;;;2.47;2.17;;;8.50;99.90;;;;;;21067108;28;20264;-65
2022/01/29 23:18:23;;;;;;;2.70;1.80;;;8.50;99.90;;;;;;21066846;28;20579;-64
2022/01/29 23:28:44;;;;;;;2.23;1.73;;;8.50;99.90;;;;;;21064401;28;20207;-63
2022/01/29 23:38:46;;;;;;;2.07;1.70;;;8.50;99.90;;;;;;21059139;28;20201;-64
2022/01/29 23:59:08;;;;;;;4.13;2.10;;;8.60;99.90;;;;;;20979118;28;20209;-64
